sensor_id;sensor_type;location;lat;lon;timestamp;P1;durP1;ratioP1;P2;durP2;ratioP2
51304;SDS011;37392;50.964;6.952;2023-07-20T00:01:28;9.98;;;4.15;;
51304;SDS011;37392;50.964;6.952;2023-07-20T00:03:54;8.63;;;3.83;;
51304;SDS011;37392;50.964;6.952;2023-07-20T00:06:26;8.98;;;4.38;;
51304;SDS011;37392;50.964;6.952;2023-07-20T00:08:55;14.93;;;4.32;;
51304;SDS011;37392;50.964;6.952;2023-07-20T00:11:24;10.18;;;3.78;;
51304;SDS011;37392;50.964;6.952;2023-07-20T00:13:51;9.27;;;3.67;;
51304;SDS011;37392;50.964;6.952;2023-07-20T00:16:17;13.88;;;4.65;;
51304;SDS011;37392;50.964;6.952;2023-07-20T00:18:42;12.00;;;4.00;;
51304;SDS011;37392;50.964;6.952;2023-07-20T00:21:08;8.38;;;3.83;;
51304;SDS011;37392;50.964;6.952;2023-07-20T00:23:34;5.72;;;3.00;;
51304;SDS011;37392;50.964;6.952;2023-07-20T00:26:00;14.82;;;2.95;;
51304;SDS011;37392;50.964;6.952;2023-07-20T00:28:25;8.02;;;4.20;;
51304;SDS011;37392;50.964;6.952;2023-07-20T00:30:51;8.52;;;3.33;;
51304;SDS011;37392;50.964;6.952;2023-07-20T00:33:17;7.22;;;4.15;;
51304;SDS011;37392;50.964;6.952;2023-07-20T00:35:43;7.80;;;3.90;;
51304;SDS011;37392;50.964;6.952;2023-07-20T00:38:11;12.77;;;3.97;;
51304;SDS011;37392;50.964;6.952;2023-07-20T00:40:37;9.60;;;3.25;;
51304;SDS011;37392;50.964;6.952;2023-07-20T00:43:03;5.75;;;3.30;;
51304;SDS011;37392;50.964;6.952;2023-07-20T00:45:29;4.45;;;2.33;;
51304;SDS011;37392;50.964;6.952;2023-07-20T00:47:55;5.72;;;2.88;;
51304;SDS011;37392;50.964;6.952;2023-07-20T00:50:21;14.00;;;5.55;;
51304;SDS011;37392;50.964;6.952;2023-07-20T00:52:47;8.63;;;3.60;;
51304;SDS011;37392;50.964;6.952;2023-07-20T00:55:14;8.10;;;3.63;;
51304;SDS011;37392;50.964;6.952;2023-07-20T00:57:39;8.90;;;2.80;;
51304;SDS011;37392;50.964;6.952;2023-07-20T01:00:06;7.18;;;3.20;;
51304;SDS011;37392;50.964;6.952;2023-07-20T01:02:32;10.05;;;2.78;;
51304;SDS011;37392;50.964;6.952;2023-07-20T01:04:57;8.20;;;3.22;;
51304;SDS011;37392;50.964;6.952;2023-07-20T01:07:27;8.27;;;2.72;;
51304;SDS011;37392;50.964;6.952;2023-07-20T01:15:17;9.82;;;3.22;;
51304;SDS011;37392;50.964;6.952;2023-07-20T01:17:43;11.05;;;4.60;;
51304;SDS011;37392;50.964;6.952;2023-07-20T01:20:10;10.32;;;3.70;;
51304;SDS011;37392;50.964;6.952;2023-07-20T01:23:26;6.55;;;2.80;;
51304;SDS011;37392;50.964;6.952;2023-07-20T01:26:17;10.35;;;3.30;;
51304;SDS011;37392;50.964;6.952;2023-07-20T01:32:29;9.38;;;3.10;;
51304;SDS011;37392;50.964;6.952;2023-07-20T01:34:57;6.22;;;3.38;;
51304;SDS011;37392;50.964;6.952;2023-07-20T01:37:25;5.68;;;3.00;;
51304;SDS011;37392;50.964;6.952;2023-07-20T01:39:54;10.93;;;4.23;;
51304;SDS011;37392;50.964;6.952;2023-07-20T01:42:24;13.65;;;3.00;;
51304;SDS011;37392;50.964;6.952;2023-07-20T01:44:52;8.25;;;3.13;;
51304;SDS011;37392;50.964;6.952;2023-07-20T01:47:18;5.95;;;2.90;;
51304;SDS011;37392;50.964;6.952;2023-07-20T01:49:44;12.02;;;3.60;;
51304;SDS011;37392;50.964;6.952;2023-07-20T01:52:10;8.68;;;2.78;;
51304;SDS011;37392;50.964;6.952;2023-07-20T01:54:36;11.98;;;2.67;;
51304;SDS011;37392;50.964;6.952;2023-07-20T01:57:02;6.45;;;2.60;;
51304;SDS011;37392;50.964;6.952;2023-07-20T01:59:27;9.43;;;2.60;;
51304;SDS011;37392;50.964;6.952;2023-07-20T02:01:53;9.35;;;3.28;;
51304;SDS011;37392;50.964;6.952;2023-07-20T02:04:19;4.70;;;2.70;;
51304;SDS011;37392;50.964;6.952;2023-07-20T02:06:44;10.30;;;2.97;;
51304;SDS011;37392;50.964;6.952;2023-07-20T02:09:10;5.55;;;2.50;;
51304;SDS011;37392;50.964;6.952;2023-07-20T02:11:35;10.88;;;2.60;;
51304;SDS011;37392;50.964;6.952;2023-07-20T02:14:01;9.18;;;4.85;;
51304;SDS011;37392;50.964;6.952;2023-07-20T02:16:27;5.30;;;3.33;;
51304;SDS011;37392;50.964;6.952;2023-07-20T02:18:52;8.55;;;3.80;;
51304;SDS011;37392;50.964;6.952;2023-07-20T02:21:18;14.23;;;3.00;;
51304;SDS011;37392;50.964;6.952;2023-07-20T02:23:43;9.02;;;3.05;;
51304;SDS011;37392;50.964;6.952;2023-07-20T02:26:09;4.10;;;2.83;;
51304;SDS011;37392;50.964;6.952;2023-07-20T02:28:35;6.40;;;3.28;;
51304;SDS011;37392;50.964;6.952;2023-07-20T02:31:00;12.70;;;6.70;;
51304;SDS011;37392;50.964;6.952;2023-07-20T02:33:26;13.60;;;6.53;;
51304;SDS011;37392;50.964;6.952;2023-07-20T02:35:51;8.65;;;4.70;;
51304;SDS011;37392;50.964;6.952;2023-07-20T02:38:18;11.05;;;4.43;;
51304;SDS011;37392;50.964;6.952;2023-07-20T02:40:43;11.57;;;5.75;;
51304;SDS011;37392;50.964;6.952;2023-07-20T02:43:09;8.48;;;4.70;;
51304;SDS011;37392;50.964;6.952;2023-07-20T02:45:35;9.20;;;4.45;;
51304;SDS011;37392;50.964;6.952;2023-07-20T02:48:00;15.13;;;5.22;;
51304;SDS011;37392;50.964;6.952;2023-07-20T02:50:28;13.40;;;5.07;;
51304;SDS011;37392;50.964;6.952;2023-07-20T02:52:53;13.95;;;4.00;;
51304;SDS011;37392;50.964;6.952;2023-07-20T02:55:19;13.68;;;4.35;;
51304;SDS011;37392;50.964;6.952;2023-07-20T02:57:45;12.18;;;4.20;;
51304;SDS011;37392;50.964;6.952;2023-07-20T03:00:11;9.38;;;4.05;;
51304;SDS011;37392;50.964;6.952;2023-07-20T03:02:40;9.80;;;4.53;;
51304;SDS011;37392;50.964;6.952;2023-07-20T03:05:06;11.43;;;3.92;;
51304;SDS011;37392;50.964;6.952;2023-07-20T03:07:32;8.45;;;3.50;;
51304;SDS011;37392;50.964;6.952;2023-07-20T03:09:58;8.65;;;3.75;;
51304;SDS011;37392;50.964;6.952;2023-07-20T03:12:24;16.00;;;4.85;;
51304;SDS011;37392;50.964;6.952;2023-07-20T03:14:50;11.60;;;4.45;;
51304;SDS011;37392;50.964;6.952;2023-07-20T03:17:15;18.55;;;4.35;;
51304;SDS011;37392;50.964;6.952;2023-07-20T03:19:41;8.45;;;4.35;;
51304;SDS011;37392;50.964;6.952;2023-07-20T03:22:07;11.70;;;3.78;;
51304;SDS011;37392;50.964;6.952;2023-07-20T03:24:33;8.93;;;3.55;;
51304;SDS011;37392;50.964;6.952;2023-07-20T03:26:58;7.03;;;2.63;;
51304;SDS011;37392;50.964;6.952;2023-07-20T03:29:24;11.20;;;3.80;;
51304;SDS011;37392;50.964;6.952;2023-07-20T03:31:50;6.72;;;3.25;;
51304;SDS011;37392;50.964;6.952;2023-07-20T03:34:16;9.80;;;4.05;;
51304;SDS011;37392;50.964;6.952;2023-07-20T03:36:41;5.50;;;3.30;;
51304;SDS011;37392;50.964;6.952;2023-07-20T03:39:07;9.75;;;3.92;;
51304;SDS011;37392;50.964;6.952;2023-07-20T03:41:33;8.90;;;4.38;;
51304;SDS011;37392;50.964;6.952;2023-07-20T03:43:58;12.45;;;3.67;;
51304;SDS011;37392;50.964;6.952;2023-07-20T03:46:24;12.55;;;3.58;;
51304;SDS011;37392;50.964;6.952;2023-07-20T03:48:49;13.25;;;3.75;;
51304;SDS011;37392;50.964;6.952;2023-07-20T03:51:15;9.27;;;3.33;;
51304;SDS011;37392;50.964;6.952;2023-07-20T03:53:41;7.00;;;3.03;;
51304;SDS011;37392;50.964;6.952;2023-07-20T03:56:07;9.77;;;3.40;;
51304;SDS011;37392;50.964;6.952;2023-07-20T03:58:33;6.80;;;3.30;;
51304;SDS011;37392;50.964;6.952;2023-07-20T04:00:58;9.27;;;3.75;;
51304;SDS011;37392;50.964;6.952;2023-07-20T04:03:24;5.75;;;3.03;;
51304;SDS011;37392;50.964;6.952;2023-07-20T04:05:52;9.75;;;3.03;;
51304;SDS011;37392;50.964;6.952;2023-07-20T04:08:20;14.43;;;3.45;;
51304;SDS011;37392;50.964;6.952;2023-07-20T04:10:48;7.85;;;2.90;;
51304;SDS011;37392;50.964;6.952;2023-07-20T04:13:14;11.23;;;3.70;;
51304;SDS011;37392;50.964;6.952;2023-07-20T04:15:39;8.60;;;3.17;;
51304;SDS011;37392;50.964;6.952;2023-07-20T04:18:05;11.10;;;3.95;;
51304;SDS011;37392;50.964;6.952;2023-07-20T04:20:30;14.43;;;3.58;;
51304;SDS011;37392;50.964;6.952;2023-07-20T04:22:56;10.52;;;3.47;;
51304;SDS011;37392;50.964;6.952;2023-07-20T04:25:22;8.20;;;3.30;;
51304;SDS011;37392;50.964;6.952;2023-07-20T04:27:47;11.65;;;4.10;;
51304;SDS011;37392;50.964;6.952;2023-07-20T04:30:13;13.35;;;3.90;;
51304;SDS011;37392;50.964;6.952;2023-07-20T04:32:40;9.75;;;3.80;;
51304;SDS011;37392;50.964;6.952;2023-07-20T04:35:09;11.55;;;3.72;;
51304;SDS011;37392;50.964;6.952;2023-07-20T04:37:35;9.30;;;3.33;;
51304;SDS011;37392;50.964;6.952;2023-07-20T04:40:01;9.93;;;3.90;;
51304;SDS011;37392;50.964;6.952;2023-07-20T04:42:26;12.80;;;3.88;;
51304;SDS011;37392;50.964;6.952;2023-07-20T04:44:52;10.38;;;3.58;;
51304;SDS011;37392;50.964;6.952;2023-07-20T04:47:18;11.60;;;3.58;;
51304;SDS011;37392;50.964;6.952;2023-07-20T04:49:43;10.98;;;3.83;;
51304;SDS011;37392;50.964;6.952;2023-07-20T04:52:09;6.75;;;3.17;;
51304;SDS011;37392;50.964;6.952;2023-07-20T04:54:34;11.55;;;3.40;;
51304;SDS011;37392;50.964;6.952;2023-07-20T04:57:00;10.23;;;3.40;;
51304;SDS011;37392;50.964;6.952;2023-07-20T04:59:26;12.43;;;3.47;;
51304;SDS011;37392;50.964;6.952;2023-07-20T05:01:51;10.23;;;4.03;;
51304;SDS011;37392;50.964;6.952;2023-07-20T05:04:17;7.13;;;3.97;;
51304;SDS011;37392;50.964;6.952;2023-07-20T05:06:43;17.65;;;5.03;;
51304;SDS011;37392;50.964;6.952;2023-07-20T05:09:08;17.13;;;3.65;;
51304;SDS011;37392;50.964;6.952;2023-07-20T05:11:34;14.65;;;3.88;;
51304;SDS011;37392;50.964;6.952;2023-07-20T05:14:00;17.55;;;4.20;;
51304;SDS011;37392;50.964;6.952;2023-07-20T05:16:25;15.23;;;3.90;;
51304;SDS011;37392;50.964;6.952;2023-07-20T05:18:51;8.23;;;3.55;;
51304;SDS011;37392;50.964;6.952;2023-07-20T05:21:17;11.55;;;4.57;;
51304;SDS011;37392;50.964;6.952;2023-07-20T05:23:42;8.88;;;3.85;;
51304;SDS011;37392;50.964;6.952;2023-07-20T05:26:08;12.10;;;5.07;;
51304;SDS011;37392;50.964;6.952;2023-07-20T05:28:34;12.75;;;4.72;;
51304;SDS011;37392;50.964;6.952;2023-07-20T05:31:02;12.98;;;5.00;;
51304;SDS011;37392;50.964;6.952;2023-07-20T05:33:28;17.45;;;4.97;;
51304;SDS011;37392;50.964;6.952;2023-07-20T05:35:53;11.55;;;4.57;;
51304;SDS011;37392;50.964;6.952;2023-07-20T05:38:19;13.95;;;5.57;;
51304;SDS011;37392;50.964;6.952;2023-07-20T05:40:45;11.90;;;4.35;;
51304;SDS011;37392;50.964;6.952;2023-07-20T05:43:12;15.52;;;5.28;;
51304;SDS011;37392;50.964;6.952;2023-07-20T05:45:37;13.57;;;4.80;;
51304;SDS011;37392;50.964;6.952;2023-07-20T05:48:06;9.98;;;4.93;;
51304;SDS011;37392;50.964;6.952;2023-07-20T05:50:36;12.75;;;4.38;;
51304;SDS011;37392;50.964;6.952;2023-07-20T05:53:01;11.98;;;5.43;;
51304;SDS011;37392;50.964;6.952;2023-07-20T05:55:27;15.18;;;5.30;;
51304;SDS011;37392;50.964;6.952;2023-07-20T05:57:52;13.68;;;4.80;;
51304;SDS011;37392;50.964;6.952;2023-07-20T06:00:20;11.15;;;5.20;;
51304;SDS011;37392;50.964;6.952;2023-07-20T06:02:51;12.08;;;6.26;;
51304;SDS011;37392;50.964;6.952;2023-07-20T06:05:18;14.00;;;6.07;;
51304;SDS011;37392;50.964;6.952;2023-07-20T06:07:46;9.43;;;5.35;;
51304;SDS011;37392;50.964;6.952;2023-07-20T06:10:11;16.63;;;6.90;;
51304;SDS011;37392;50.964;6.952;2023-07-20T06:12:37;15.00;;;5.60;;
51304;SDS011;37392;50.964;6.952;2023-07-20T06:15:03;17.17;;;6.28;;
51304;SDS011;37392;50.964;6.952;2023-07-20T06:17:30;20.70;;;7.38;;
51304;SDS011;37392;50.964;6.952;2023-07-20T06:19:56;15.07;;;6.97;;
51304;SDS011;37392;50.964;6.952;2023-07-20T06:22:22;15.57;;;6.63;;
51304;SDS011;37392;50.964;6.952;2023-07-20T06:24:48;18.77;;;6.82;;
51304;SDS011;37392;50.964;6.952;2023-07-20T06:27:13;13.27;;;5.40;;
51304;SDS011;37392;50.964;6.952;2023-07-20T06:29:39;23.20;;;7.15;;
51304;SDS011;37392;50.964;6.952;2023-07-20T06:32:05;18.08;;;6.47;;
51304;SDS011;37392;50.964;6.952;2023-07-20T06:34:31;11.85;;;6.18;;
51304;SDS011;37392;50.964;6.952;2023-07-20T06:37:01;13.48;;;5.45;;
51304;SDS011;37392;50.964;6.952;2023-07-20T06:39:29;9.13;;;4.63;;
51304;SDS011;37392;50.964;6.952;2023-07-20T06:41:54;8.52;;;4.50;;
51304;SDS011;37392;50.964;6.952;2023-07-20T06:44:20;23.77;;;6.03;;
51304;SDS011;37392;50.964;6.952;2023-07-20T06:46:45;8.88;;;4.70;;
51304;SDS011;37392;50.964;6.952;2023-07-20T06:49:19;14.88;;;5.65;;
51304;SDS011;37392;50.964;6.952;2023-07-20T06:51:50;13.57;;;5.88;;
51304;SDS011;37392;50.964;6.952;2023-07-20T06:54:16;23.02;;;7.22;;
51304;SDS011;37392;50.964;6.952;2023-07-20T06:56:42;14.32;;;5.65;;
51304;SDS011;37392;50.964;6.952;2023-07-20T06:59:07;14.93;;;6.07;;
51304;SDS011;37392;50.964;6.952;2023-07-20T07:01:33;13.32;;;6.38;;
51304;SDS011;37392;50.964;6.952;2023-07-20T07:03:58;13.93;;;5.55;;
51304;SDS011;37392;50.964;6.952;2023-07-20T07:06:24;8.52;;;5.88;;
51304;SDS011;37392;50.964;6.952;2023-07-20T07:08:50;11.80;;;5.60;;
51304;SDS011;37392;50.964;6.952;2023-07-20T07:11:17;8.77;;;5.20;;
51304;SDS011;37392;50.964;6.952;2023-07-20T07:13:43;8.88;;;5.20;;
51304;SDS011;37392;50.964;6.952;2023-07-20T07:16:08;8.30;;;5.50;;
51304;SDS011;37392;50.964;6.952;2023-07-20T07:18:34;10.05;;;5.03;;
51304;SDS011;37392;50.964;6.952;2023-07-20T07:20:59;9.90;;;5.20;;
51304;SDS011;37392;50.964;6.952;2023-07-20T07:23:25;8.70;;;5.43;;
51304;SDS011;37392;50.964;6.952;2023-07-20T07:25:50;11.75;;;4.78;;
51304;SDS011;37392;50.964;6.952;2023-07-20T07:28:16;7.40;;;4.20;;
51304;SDS011;37392;50.964;6.952;2023-07-20T07:30:42;11.35;;;3.65;;
51304;SDS011;37392;50.964;6.952;2023-07-20T07:33:07;14.50;;;5.10;;
51304;SDS011;37392;50.964;6.952;2023-07-20T07:35:34;7.82;;;4.32;;
51304;SDS011;37392;50.964;6.952;2023-07-20T07:38:01;14.75;;;4.75;;
51304;SDS011;37392;50.964;6.952;2023-07-20T07:40:26;9.70;;;4.25;;
51304;SDS011;37392;50.964;6.952;2023-07-20T07:42:52;8.90;;;3.58;;
51304;SDS011;37392;50.964;6.952;2023-07-20T07:45:17;9.52;;;4.97;;
51304;SDS011;37392;50.964;6.952;2023-07-20T07:47:43;8.23;;;4.18;;
51304;SDS011;37392;50.964;6.952;2023-07-20T07:50:09;7.97;;;4.13;;
51304;SDS011;37392;50.964;6.952;2023-07-20T07:52:35;9.00;;;4.25;;
51304;SDS011;37392;50.964;6.952;2023-07-20T07:55:01;9.82;;;3.70;;
51304;SDS011;37392;50.964;6.952;2023-07-20T07:57:29;10.20;;;4.20;;
51304;SDS011;37392;50.964;6.952;2023-07-20T07:59:54;7.18;;;3.78;;
51304;SDS011;37392;50.964;6.952;2023-07-20T08:02:20;11.18;;;5.72;;
51304;SDS011;37392;50.964;6.952;2023-07-20T08:04:46;9.60;;;4.57;;
51304;SDS011;37392;50.964;6.952;2023-07-20T08:07:12;12.15;;;5.55;;
51304;SDS011;37392;50.964;6.952;2023-07-20T08:09:37;13.32;;;4.43;;
51304;SDS011;37392;50.964;6.952;2023-07-20T08:12:03;11.50;;;4.07;;
51304;SDS011;37392;50.964;6.952;2023-07-20T08:14:29;13.48;;;4.68;;
51304;SDS011;37392;50.964;6.952;2023-07-20T08:16:55;11.60;;;4.10;;
51304;SDS011;37392;50.964;6.952;2023-07-20T08:19:21;6.80;;;3.40;;
51304;SDS011;37392;50.964;6.952;2023-07-20T08:21:49;8.40;;;3.35;;
51304;SDS011;37392;50.964;6.952;2023-07-20T08:24:15;9.60;;;2.80;;
51304;SDS011;37392;50.964;6.952;2023-07-20T08:26:40;10.32;;;3.45;;
51304;SDS011;37392;50.964;6.952;2023-07-20T08:29:06;7.50;;;2.95;;
51304;SDS011;37392;50.964;6.952;2023-07-20T08:31:31;8.25;;;4.85;;
51304;SDS011;37392;50.964;6.952;2023-07-20T08:33:57;7.55;;;2.88;;
51304;SDS011;37392;50.964;6.952;2023-07-20T08:36:23;9.25;;;3.22;;
51304;SDS011;37392;50.964;6.952;2023-07-20T08:38:49;13.05;;;2.97;;
51304;SDS011;37392;50.964;6.952;2023-07-20T08:41:15;12.38;;;3.13;;
51304;SDS011;37392;50.964;6.952;2023-07-20T08:43:42;7.05;;;3.38;;
51304;SDS011;37392;50.964;6.952;2023-07-20T08:46:09;7.40;;;2.65;;
51304;SDS011;37392;50.964;6.952;2023-07-20T08:48:36;9.63;;;4.82;;
51304;SDS011;37392;50.964;6.952;2023-07-20T08:51:01;5.60;;;3.50;;
51304;SDS011;37392;50.964;6.952;2023-07-20T08:53:29;5.78;;;2.25;;
51304;SDS011;37392;50.964;6.952;2023-07-20T08:55:56;10.43;;;2.25;;
51304;SDS011;37392;50.964;6.952;2023-07-20T08:58:23;4.70;;;2.10;;
51304;SDS011;37392;50.964;6.952;2023-07-20T09:00:51;4.65;;;3.05;;
51304;SDS011;37392;50.964;6.952;2023-07-20T09:03:18;11.85;;;2.35;;
51304;SDS011;37392;50.964;6.952;2023-07-20T09:05:44;4.65;;;1.90;;
51304;SDS011;37392;50.964;6.952;2023-07-20T09:08:10;8.07;;;2.38;;
51304;SDS011;37392;50.964;6.952;2023-07-20T09:10:35;7.22;;;2.42;;
51304;SDS011;37392;50.964;6.952;2023-07-20T09:13:01;8.32;;;2.10;;
51304;SDS011;37392;50.964;6.952;2023-07-20T09:15:28;5.82;;;2.35;;
51304;SDS011;37392;50.964;6.952;2023-07-20T09:17:54;2.33;;;1.23;;
51304;SDS011;37392;50.964;6.952;2023-07-20T09:20:20;6.55;;;1.50;;
51304;SDS011;37392;50.964;6.952;2023-07-20T09:22:46;2.47;;;1.33;;
51304;SDS011;37392;50.964;6.952;2023-07-20T09:25:13;4.68;;;1.92;;
51304;SDS011;37392;50.964;6.952;2023-07-20T09:27:41;8.85;;;2.53;;
51304;SDS011;37392;50.964;6.952;2023-07-20T09:30:08;2.90;;;1.40;;
51304;SDS011;37392;50.964;6.952;2023-07-20T09:32:38;3.78;;;1.52;;
51304;SDS011;37392;50.964;6.952;2023-07-20T09:35:15;6.53;;;2.03;;
51304;SDS011;37392;50.964;6.952;2023-07-20T09:40:19;13.38;;;3.60;;
51304;SDS011;37392;50.964;6.952;2023-07-20T09:42:46;5.22;;;2.17;;
51304;SDS011;37392;50.964;6.952;2023-07-20T09:45:13;9.90;;;6.20;;
51304;SDS011;37392;50.964;6.952;2023-07-20T09:47:39;3.13;;;1.80;;
51304;SDS011;37392;50.964;6.952;2023-07-20T09:50:06;6.18;;;2.05;;
51304;SDS011;37392;50.964;6.952;2023-07-20T09:52:38;5.85;;;2.25;;
51304;SDS011;37392;50.964;6.952;2023-07-20T09:55:09;2.65;;;1.73;;
51304;SDS011;37392;50.964;6.952;2023-07-20T09:57:38;3.97;;;1.60;;
51304;SDS011;37392;50.964;6.952;2023-07-20T10:00:05;2.95;;;1.25;;
51304;SDS011;37392;50.964;6.952;2023-07-20T10:02:40;6.75;;;2.45;;
51304;SDS011;37392;50.964;6.952;2023-07-20T10:05:13;2.47;;;1.63;;
51304;SDS011;37392;50.964;6.952;2023-07-20T10:10:14;3.58;;;1.40;;
51304;SDS011;37392;50.964;6.952;2023-07-20T10:12:45;2.13;;;1.27;;
51304;SDS011;37392;50.964;6.952;2023-07-20T10:15:20;3.25;;;1.13;;
51304;SDS011;37392;50.964;6.952;2023-07-20T10:20:33;3.05;;;0.90;;
51304;SDS011;37392;50.964;6.952;2023-07-20T10:23:01;2.55;;;1.00;;
51304;SDS011;37392;50.964;6.952;2023-07-20T10:25:29;3.20;;;1.20;;
51304;SDS011;37392;50.964;6.952;2023-07-20T10:27:56;3.70;;;1.90;;
51304;SDS011;37392;50.964;6.952;2023-07-20T10:30:22;3.33;;;1.38;;
51304;SDS011;37392;50.964;6.952;2023-07-20T10:32:49;4.50;;;1.38;;
51304;SDS011;37392;50.964;6.952;2023-07-20T10:35:16;4.15;;;2.00;;
51304;SDS011;37392;50.964;6.952;2023-07-20T10:40:29;2.22;;;1.00;;
51304;SDS011;37392;50.964;6.952;2023-07-20T10:45:40;14.00;;;2.58;;
51304;SDS011;37392;50.964;6.952;2023-07-20T10:48:18;4.30;;;1.38;;
51304;SDS011;37392;50.964;6.952;2023-07-20T10:53:47;3.03;;;1.50;;
51304;SDS011;37392;50.964;6.952;2023-07-20T10:56:15;2.95;;;1.65;;
51304;SDS011;37392;50.964;6.952;2023-07-20T10:58:46;4.25;;;1.90;;
51304;SDS011;37392;50.964;6.952;2023-07-20T11:01:18;4.22;;;2.55;;
51304;SDS011;37392;50.964;6.952;2023-07-20T11:03:48;8.93;;;1.77;;
51304;SDS011;37392;50.964;6.952;2023-07-20T11:08:57;6.07;;;2.03;;
51304;SDS011;37392;50.964;6.952;2023-07-20T11:11:32;3.63;;;1.15;;
51304;SDS011;37392;50.964;6.952;2023-07-20T11:14:02;20.80;;;15.75;;
51304;SDS011;37392;50.964;6.952;2023-07-20T11:16:33;3.85;;;2.30;;
51304;SDS011;37392;50.964;6.952;2023-07-20T11:19:16;1.75;;;1.15;;
51304;SDS011;37392;50.964;6.952;2023-07-20T11:21:51;1.40;;;1.00;;
51304;SDS011;37392;50.964;6.952;2023-07-20T11:24:21;2.70;;;0.70;;
51304;SDS011;37392;50.964;6.952;2023-07-20T11:26:47;5.78;;;1.10;;
51304;SDS011;37392;50.964;6.952;2023-07-20T11:29:18;1.65;;;1.23;;
51304;SDS011;37392;50.964;6.952;2023-07-20T11:31:46;4.68;;;1.85;;
51304;SDS011;37392;50.964;6.952;2023-07-20T11:34:15;1.77;;;0.75;;
51304;SDS011;37392;50.964;6.952;2023-07-20T11:36:45;4.90;;;1.60;;
51304;SDS011;37392;50.964;6.952;2023-07-20T11:39:14;6.18;;;1.02;;
51304;SDS011;37392;50.964;6.952;2023-07-20T11:41:48;4.90;;;1.88;;
51304;SDS011;37392;50.964;6.952;2023-07-20T11:44:18;3.67;;;1.00;;
51304;SDS011;37392;50.964;6.952;2023-07-20T11:46:59;7.35;;;2.20;;
51304;SDS011;37392;50.964;6.952;2023-07-20T11:49:46;2.05;;;1.13;;
51304;SDS011;37392;50.964;6.952;2023-07-20T11:52:16;2.53;;;0.98;;
51304;SDS011;37392;50.964;6.952;2023-07-20T11:54:42;0.88;;;0.50;;
51304;SDS011;37392;50.964;6.952;2023-07-20T11:57:15;3.53;;;1.30;;
51304;SDS011;37392;50.964;6.952;2023-07-20T11:59:56;2.25;;;1.13;;
51304;SDS011;37392;50.964;6.952;2023-07-20T12:02:26;1.30;;;1.20;;
51304;SDS011;37392;50.964;6.952;2023-07-20T12:04:53;2.55;;;1.65;;
51304;SDS011;37392;50.964;6.952;2023-07-20T12:07:20;7.15;;;0.90;;
51304;SDS011;37392;50.964;6.952;2023-07-20T12:12:39;3.80;;;2.03;;
51304;SDS011;37392;50.964;6.952;2023-07-20T12:15:17;2.85;;;2.13;;
51304;SDS011;37392;50.964;6.952;2023-07-20T12:17:55;3.92;;;1.10;;
51304;SDS011;37392;50.964;6.952;2023-07-20T12:23:03;1.45;;;0.90;;
51304;SDS011;37392;50.964;6.952;2023-07-20T12:25:41;4.65;;;3.03;;
51304;SDS011;37392;50.964;6.952;2023-07-20T12:28:19;4.05;;;1.90;;
51304;SDS011;37392;50.964;6.952;2023-07-20T12:31:10;3.88;;;1.42;;
51304;SDS011;37392;50.964;6.952;2023-07-20T12:33:38;2.30;;;1.17;;
51304;SDS011;37392;50.964;6.952;2023-07-20T12:36:04;2.72;;;1.83;;
51304;SDS011;37392;50.964;6.952;2023-07-20T12:38:30;4.18;;;1.88;;
51304;SDS011;37392;50.964;6.952;2023-07-20T12:40:56;8.05;;;1.88;;
51304;SDS011;37392;50.964;6.952;2023-07-20T12:43:23;7.65;;;2.58;;
51304;SDS011;37392;50.964;6.952;2023-07-20T12:45:49;3.92;;;1.80;;
51304;SDS011;37392;50.964;6.952;2023-07-20T12:48:15;12.55;;;2.35;;
51304;SDS011;37392;50.964;6.952;2023-07-20T12:50:41;3.28;;;1.90;;
51304;SDS011;37392;50.964;6.952;2023-07-20T12:53:07;11.73;;;2.63;;
51304;SDS011;37392;50.964;6.952;2023-07-20T12:55:33;5.90;;;4.13;;
51304;SDS011;37392;50.964;6.952;2023-07-20T12:57:59;5.97;;;2.03;;
51304;SDS011;37392;50.964;6.952;2023-07-20T13:00:24;51.13;;;5.43;;
51304;SDS011;37392;50.964;6.952;2023-07-20T13:02:50;36.92;;;4.25;;
51304;SDS011;37392;50.964;6.952;2023-07-20T13:05:16;12.57;;;2.45;;
51304;SDS011;37392;50.964;6.952;2023-07-20T13:07:42;4.43;;;1.38;;
51304;SDS011;37392;50.964;6.952;2023-07-20T13:10:09;17.67;;;3.85;;
51304;SDS011;37392;50.964;6.952;2023-07-20T13:12:37;27.25;;;3.50;;
51304;SDS011;37392;50.964;6.952;2023-07-20T13:15:04;7.07;;;1.23;;
51304;SDS011;37392;50.964;6.952;2023-07-20T13:17:35;9.77;;;5.15;;
51304;SDS011;37392;50.964;6.952;2023-07-20T13:20:05;2.50;;;0.82;;
51304;SDS011;37392;50.964;6.952;2023-07-20T13:22:35;11.10;;;3.00;;
51304;SDS011;37392;50.964;6.952;2023-07-20T13:25:01;9.82;;;3.08;;
51304;SDS011;37392;50.964;6.952;2023-07-20T13:27:27;3.97;;;2.15;;
51304;SDS011;37392;50.964;6.952;2023-07-20T13:29:53;9.90;;;2.55;;
51304;SDS011;37392;50.964;6.952;2023-07-20T13:32:19;5.65;;;1.40;;
51304;SDS011;37392;50.964;6.952;2023-07-20T13:34:45;1.73;;;1.10;;
51304;SDS011;37392;50.964;6.952;2023-07-20T13:37:11;3.10;;;1.25;;
51304;SDS011;37392;50.964;6.952;2023-07-20T13:39:37;3.42;;;1.27;;
51304;SDS011;37392;50.964;6.952;2023-07-20T13:42:03;3.70;;;1.90;;
51304;SDS011;37392;50.964;6.952;2023-07-20T13:44:33;2.55;;;1.05;;
51304;SDS011;37392;50.964;6.952;2023-07-20T13:46:59;1.70;;;1.33;;
51304;SDS011;37392;50.964;6.952;2023-07-20T13:49:26;4.80;;;1.40;;
51304;SDS011;37392;50.964;6.952;2023-07-20T13:51:52;9.82;;;2.17;;
51304;SDS011;37392;50.964;6.952;2023-07-20T13:54:17;2.38;;;1.98;;
51304;SDS011;37392;50.964;6.952;2023-07-20T13:56:43;4.43;;;1.52;;
51304;SDS011;37392;50.964;6.952;2023-07-20T13:59:08;18.42;;;3.40;;
51304;SDS011;37392;50.964;6.952;2023-07-20T14:01:34;3.17;;;1.00;;
51304;SDS011;37392;50.964;6.952;2023-07-20T14:04:00;3.10;;;1.40;;
51304;SDS011;37392;50.964;6.952;2023-07-20T14:06:30;6.32;;;2.40;;
51304;SDS011;37392;50.964;6.952;2023-07-20T14:08:58;1.67;;;1.25;;
51304;SDS011;37392;50.964;6.952;2023-07-20T14:11:24;2.38;;;0.65;;
51304;SDS011;37392;50.964;6.952;2023-07-20T14:13:50;2.40;;;1.40;;
51304;SDS011;37392;50.964;6.952;2023-07-20T14:16:20;5.07;;;1.30;;
51304;SDS011;37392;50.964;6.952;2023-07-20T14:18:46;2.85;;;1.50;;
51304;SDS011;37392;50.964;6.952;2023-07-20T14:21:14;3.50;;;1.23;;
51304;SDS011;37392;50.964;6.952;2023-07-20T14:23:46;7.05;;;2.22;;
51304;SDS011;37392;50.964;6.952;2023-07-20T14:26:14;16.95;;;6.03;;
51304;SDS011;37392;50.964;6.952;2023-07-20T14:28:41;1.88;;;1.20;;
51304;SDS011;37392;50.964;6.952;2023-07-20T14:31:07;1.40;;;0.93;;
51304;SDS011;37392;50.964;6.952;2023-07-20T14:33:33;10.05;;;1.20;;
51304;SDS011;37392;50.964;6.952;2023-07-20T14:35:59;6.70;;;1.40;;
51304;SDS011;37392;50.964;6.952;2023-07-20T14:38:26;2.40;;;1.30;;
51304;SDS011;37392;50.964;6.952;2023-07-20T14:40:56;8.18;;;4.18;;
51304;SDS011;37392;50.964;6.952;2023-07-20T14:43:22;13.10;;;3.30;;
51304;SDS011;37392;50.964;6.952;2023-07-20T14:45:48;4.60;;;1.40;;
51304;SDS011;37392;50.964;6.952;2023-07-20T14:48:13;7.65;;;1.73;;
51304;SDS011;37392;50.964;6.952;2023-07-20T14:50:39;4.28;;;1.40;;
51304;SDS011;37392;50.964;6.952;2023-07-20T14:53:05;6.80;;;2.42;;
51304;SDS011;37392;50.964;6.952;2023-07-20T14:55:32;6.68;;;1.48;;
51304;SDS011;37392;50.964;6.952;2023-07-20T14:57:58;3.88;;;1.20;;
51304;SDS011;37392;50.964;6.952;2023-07-20T15:00:24;3.20;;;1.35;;
51304;SDS011;37392;50.964;6.952;2023-07-20T15:02:50;11.05;;;1.75;;
51304;SDS011;37392;50.964;6.952;2023-07-20T15:05:23;3.53;;;1.73;;
51304;SDS011;37392;50.964;6.952;2023-07-20T15:07:51;5.32;;;2.08;;
51304;SDS011;37392;50.964;6.952;2023-07-20T15:10:18;6.05;;;1.50;;
51304;SDS011;37392;50.964;6.952;2023-07-20T15:12:43;2.50;;;1.13;;
51304;SDS011;37392;50.964;6.952;2023-07-20T15:15:10;4.45;;;1.23;;
51304;SDS011;37392;50.964;6.952;2023-07-20T15:17:38;5.15;;;1.88;;